createdAt,value
2023-03-05T00:00:55.856Z,5.19
2023-03-05T00:03:26.086Z,5.20
2023-03-05T00:05:59.232Z,5.19
2023-03-05T00:08:36.213Z,5.19
2023-03-05T00:11:10.202Z,5.18
2023-03-05T00:13:40.904Z,5.18
2023-03-05T00:16:13.991Z,5.16
2023-03-05T00:18:44.888Z,5.15
2023-03-05T00:21:21.410Z,5.14
2023-03-05T00:23:55.059Z,5.12
2023-03-05T00:26:27.808Z,5.13
2023-03-05T00:28:58.461Z,5.12
2023-03-05T00:31:32.020Z,5.11
2023-03-05T00:34:04.944Z,5.11
2023-03-05T00:36:35.205Z,5.08
2023-03-05T00:39:04.787Z,5.06
2023-03-05T00:41:36.524Z,5.01
2023-03-05T00:44:07.891Z,4.97
2023-03-05T00:46:38.985Z,4.93
2023-03-05T00:49:10.378Z,4.92
2023-03-05T00:51:40.717Z,4.88
2023-03-05T00:54:11.641Z,4.87
2023-03-05T00:56:43.424Z,4.88
2023-03-05T00:59:13.615Z,4.87
2023-03-05T01:01:43.840Z,4.86
2023-03-05T01:04:13.747Z,4.85
2023-03-05T01:06:46.579Z,4.83
2023-03-05T01:09:17.070Z,4.82
2023-03-05T01:11:48.509Z,4.80
2023-03-05T01:14:18.936Z,4.81
2023-03-05T01:16:50.028Z,4.79
2023-03-05T01:19:20.136Z,4.79
2023-03-05T01:21:50.729Z,4.80
2023-03-05T01:24:20.039Z,4.79
2023-03-05T01:26:53.755Z,4.76
2023-03-05T01:29:25.241Z,4.75
2023-03-05T01:31:54.674Z,4.73
2023-03-05T01:34:24.843Z,4.73
2023-03-05T01:36:53.722Z,4.70
2023-03-05T01:39:24.086Z,4.70
2023-03-05T01:41:56.198Z,4.70
2023-03-05T01:44:34.871Z,4.69
2023-03-05T01:47:05.761Z,4.67
2023-03-05T01:49:38.942Z,4.66
2023-03-05T01:52:14.125Z,4.65
2023-03-05T01:54:46.903Z,4.64
2023-03-05T01:57:25.097Z,4.63
2023-03-05T01:59:59.562Z,4.62
2023-03-05T02:02:30.490Z,4.61
2023-03-05T02:05:05.682Z,4.61
2023-03-05T02:07:38.479Z,4.60
2023-03-05T02:10:19.877Z,4.59
2023-03-05T02:12:52.278Z,4.58
2023-03-05T02:15:22.669Z,4.57
2023-03-05T02:17:52.825Z,4.52
2023-03-05T02:20:26.885Z,4.52
2023-03-05T02:22:59.567Z,4.52
2023-03-05T02:25:31.869Z,4.52
2023-03-05T02:28:05.163Z,4.51
2023-03-05T02:30:36.397Z,4.49
2023-03-05T02:33:06.624Z,4.49
2023-03-05T02:35:36.505Z,4.49
2023-03-05T02:38:10.766Z,4.48
2023-03-05T02:40:41.188Z,4.48
2023-03-05T02:43:11.443Z,4.47
2023-03-05T02:45:40.519Z,4.47
2023-03-05T02:48:10.537Z,4.47
2023-03-05T02:50:41.160Z,4.47
2023-03-05T02:53:12.900Z,4.47
2023-03-05T02:55:42.932Z,4.46
2023-03-05T02:58:12.899Z,4.45
2023-03-05T03:00:43.054Z,4.45
2023-03-05T03:03:12.239Z,4.44
2023-03-05T03:05:42.171Z,4.44
2023-03-05T03:08:13.340Z,4.43
2023-03-05T03:10:43.148Z,4.44
2023-03-05T03:13:13.198Z,4.42
2023-03-05T03:15:43.194Z,4.42
2023-03-05T03:18:13.216Z,4.39
2023-03-05T03:20:43.772Z,4.39
2023-03-05T03:23:13.736Z,4.39
2023-03-05T03:25:42.556Z,4.38
2023-03-05T03:28:11.975Z,4.37
2023-03-05T03:30:42.441Z,4.37
2023-03-05T03:33:12.369Z,4.38
2023-03-05T03:35:42.646Z,4.36
2023-03-05T03:38:14.647Z,4.36
2023-03-05T03:40:44.373Z,4.37
2023-03-05T03:43:14.378Z,4.35
2023-03-05T03:45:44.175Z,4.35
2023-03-05T03:48:14.039Z,4.31
2023-03-05T03:50:43.684Z,4.30
2023-03-05T03:53:20.538Z,4.30
2023-03-05T03:55:50.422Z,4.31
2023-03-05T03:58:20.055Z,4.29
2023-03-05T04:00:50.564Z,4.27
2023-03-05T04:03:22.097Z,4.27
2023-03-05T04:05:51.878Z,4.25
2023-03-05T04:08:23.295Z,4.23
2023-03-05T04:10:55.738Z,4.21
2023-03-05T04:13:25.881Z,4.21
2023-03-05T04:15:56.761Z,4.21
2023-03-05T04:18:27.876Z,4.18
2023-03-05T04:20:57.843Z,4.17
2023-03-05T04:23:29.632Z,4.15
2023-03-05T04:25:59.949Z,4.14
2023-03-05T04:28:30.054Z,4.13
2023-03-05T04:31:01.887Z,4.11
2023-03-05T04:33:34.900Z,4.10
2023-03-05T04:36:05.267Z,4.09
2023-03-05T04:38:45.096Z,4.09
2023-03-05T04:41:17.775Z,4.08
2023-03-05T04:43:48.593Z,4.08
2023-03-05T04:46:18.746Z,4.06
2023-03-05T04:48:48.921Z,4.07
2023-03-05T04:51:21.556Z,4.08
2023-03-05T04:53:53.107Z,4.06
2023-03-05T04:56:22.999Z,4.03
2023-03-05T04:58:59.522Z,4.01
2023-03-05T05:01:30.196Z,4.00
2023-03-05T05:03:59.602Z,3.97
2023-03-05T05:06:29.448Z,3.97
2023-03-05T05:09:00.562Z,3.96
2023-03-05T05:11:31.303Z,3.96
2023-03-05T05:14:07.068Z,3.95
2023-03-05T05:16:37.180Z,3.94
2023-03-05T05:19:13.216Z,3.95
2023-03-05T05:21:42.452Z,3.96
2023-03-05T05:24:16.868Z,3.96
2023-03-05T05:26:48.764Z,3.96
2023-03-05T05:29:17.628Z,3.97
2023-03-05T05:31:47.420Z,3.99
2023-03-05T05:34:17.987Z,3.98
2023-03-05T05:36:50.336Z,3.97
2023-03-05T05:39:21.658Z,3.97
2023-03-05T05:41:53.459Z,3.97
2023-03-05T05:44:23.413Z,3.98
2023-03-05T05:46:53.854Z,3.99
2023-03-05T05:49:23.004Z,3.97
2023-03-05T05:51:52.132Z,3.97
2023-03-05T05:54:22.742Z,3.96
2023-03-05T05:56:52.109Z,3.97
2023-03-05T05:59:21.283Z,3.97
2023-03-05T06:01:50.122Z,3.96
2023-03-05T06:04:18.897Z,3.95
2023-03-05T06:06:48.551Z,3.95
2023-03-05T06:09:18.343Z,3.94
2023-03-05T06:11:50.582Z,3.93
2023-03-05T06:14:20.667Z,3.93
2023-03-05T06:16:49.823Z,3.91
2023-03-05T06:19:19.354Z,3.92
2023-03-05T06:21:51.548Z,3.92
2023-03-05T06:24:22.667Z,3.92
2023-03-05T06:26:53.895Z,3.92
2023-03-05T06:29:23.229Z,3.91
2023-03-05T06:31:52.943Z,3.93
2023-03-05T06:34:22.261Z,3.94
2023-03-05T06:36:51.825Z,3.93
2023-03-05T06:39:21.954Z,3.94
2023-03-05T06:41:54.216Z,3.95
2023-03-05T06:44:23.315Z,3.93
2023-03-05T06:46:53.022Z,3.91
2023-03-05T06:49:23.065Z,3.91
2023-03-05T06:51:52.995Z,3.91
2023-03-05T06:54:21.907Z,3.92
2023-03-05T06:56:52.064Z,3.92
2023-03-05T06:59:23.150Z,3.93
2023-03-05T07:01:53.080Z,3.95
2023-03-05T07:04:24.584Z,3.96
2023-03-05T07:06:56.142Z,3.98
2023-03-05T07:09:26.296Z,3.99
2023-03-05T07:11:55.894Z,4.01
2023-03-05T07:14:26.748Z,4.01
2023-03-05T07:16:56.276Z,4.01
2023-03-05T07:19:26.061Z,4.02
2023-03-05T07:21:55.358Z,4.03
2023-03-05T07:24:29.818Z,4.02
2023-03-05T07:26:58.784Z,4.02
2023-03-05T07:29:29.933Z,4.03
2023-03-05T07:31:58.718Z,4.06
2023-03-05T07:34:27.745Z,4.07
2023-03-05T07:36:56.422Z,4.10
2023-03-05T07:39:25.127Z,4.11
2023-03-05T07:41:53.863Z,4.11
2023-03-05T07:44:31.518Z,4.13
2023-03-05T07:47:00.987Z,4.11
2023-03-05T07:49:31.228Z,4.08
2023-03-05T07:52:00.725Z,4.08
2023-03-05T07:54:30.581Z,4.07
2023-03-05T07:57:00.328Z,4.07
2023-03-05T07:59:30.200Z,4.06
2023-03-05T08:02:00.588Z,4.07
2023-03-05T08:04:32.361Z,4.07
2023-03-05T08:07:03.365Z,4.07
2023-03-05T08:09:36.206Z,4.08
2023-03-05T08:12:06.909Z,4.08
2023-03-05T08:14:37.943Z,4.08
2023-03-05T08:17:09.665Z,4.07
2023-03-05T08:19:38.812Z,4.06
2023-03-05T08:22:09.232Z,4.05
2023-03-05T08:24:39.132Z,4.05
2023-03-05T08:27:09.496Z,4.03
2023-03-05T08:29:38.720Z,4.02
2023-03-05T08:32:10.215Z,4.00
2023-03-05T08:34:39.778Z,3.99
2023-03-05T08:37:10.289Z,3.97
2023-03-05T08:39:40.226Z,3.98
2023-03-05T08:42:10.587Z,3.99
2023-03-05T08:44:40.297Z,4.00
2023-03-05T08:47:11.232Z,4.01
2023-03-05T08:49:40.385Z,4.01
2023-03-05T08:52:09.803Z,3.99
2023-03-05T08:54:39.150Z,3.97
2023-03-05T08:57:08.984Z,3.97
2023-03-05T08:59:38.434Z,3.97
2023-03-05T09:02:08.351Z,3.97
2023-03-05T09:04:38.807Z,4.00
2023-03-05T09:07:10.011Z,4.03
2023-03-05T09:09:39.550Z,4.05
2023-03-05T09:12:12.252Z,4.06
2023-03-05T09:14:44.409Z,4.06
2023-03-05T09:17:13.919Z,4.07
2023-03-05T09:19:45.371Z,4.11
2023-03-05T09:22:15.197Z,4.14
2023-03-05T09:24:45.060Z,4.15
2023-03-05T09:27:14.765Z,4.16
2023-03-05T09:29:44.816Z,4.17
2023-03-05T09:32:13.968Z,4.19
2023-03-05T09:34:45.262Z,4.21
2023-03-05T09:37:14.850Z,4.23
2023-03-05T09:39:43.854Z,4.26
2023-03-05T09:42:46.689Z,4.28
2023-03-05T09:45:25.008Z,4.26
2023-03-05T09:48:05.118Z,4.26
2023-03-05T09:50:43.344Z,4.27
2023-03-05T09:53:27.234Z,4.27
2023-03-05T09:56:00.711Z,4.27
2023-03-05T09:58:37.255Z,4.30
2023-03-05T10:01:12.594Z,4.33
2023-03-05T10:03:52.290Z,4.31
2023-03-05T10:06:26.174Z,4.33
2023-03-05T10:08:57.621Z,4.33
2023-03-05T10:11:45.678Z,4.33
2023-03-05T10:14:20.188Z,4.33
2023-03-05T10:17:18.579Z,4.35
2023-03-05T10:20:17.362Z,4.37
2023-03-05T10:23:06.413Z,4.37
2023-03-05T10:25:52.022Z,4.40
2023-03-05T10:28:28.840Z,4.40
2023-03-05T10:31:13.150Z,4.42
2023-03-05T10:33:46.891Z,4.44
2023-03-05T10:36:46.010Z,4.45
2023-03-05T10:39:40.118Z,4.48
2023-03-05T10:42:20.427Z,4.54
2023-03-05T10:44:54.744Z,4.59
2023-03-05T10:47:30.590Z,4.61
2023-03-05T10:50:02.048Z,4.66
2023-03-05T10:52:38.044Z,4.71
2023-03-05T10:55:18.514Z,4.77
2023-03-05T10:57:48.007Z,4.85
2023-03-05T11:00:23.555Z,4.93
2023-03-05T11:02:59.359Z,5.01
2023-03-05T11:05:43.864Z,5.06
2023-03-05T11:08:29.433Z,5.06
2023-03-05T11:11:14.520Z,5.06
2023-03-05T11:13:53.759Z,5.06
2023-03-05T11:16:25.499Z,5.06
2023-03-05T11:19:19.544Z,5.08
2023-03-05T11:22:08.241Z,5.09
2023-03-05T11:24:37.406Z,5.10
2023-03-05T11:27:25.034Z,5.09
2023-03-05T11:29:54.869Z,5.10
2023-03-05T11:32:27.502Z,5.13
2023-03-05T11:34:58.724Z,5.15
2023-03-05T11:37:30.428Z,5.18
2023-03-05T11:40:24.404Z,5.24
2023-03-05T11:42:58.599Z,5.31
2023-03-05T11:45:29.677Z,5.36
2023-03-05T11:48:08.355Z,5.40
2023-03-05T11:50:39.233Z,5.43
2023-03-05T11:53:13.659Z,5.45
2023-03-05T11:55:45.157Z,5.47
2023-03-05T11:58:27.629Z,5.50
2023-03-05T12:00:57.227Z,5.55
2023-03-05T12:03:30.718Z,5.58
2023-03-05T12:06:15.217Z,5.64
2023-03-05T12:08:49.192Z,5.73
2023-03-05T12:11:21.712Z,5.83
2023-03-05T12:13:54.120Z,5.93
2023-03-05T12:16:30.713Z,5.99
2023-03-05T12:19:22.674Z,6.04
2023-03-05T12:21:53.575Z,6.08
2023-03-05T12:24:39.591Z,6.10
2023-03-05T12:27:15.978Z,6.14
2023-03-05T12:29:51.087Z,6.18
2023-03-05T12:32:53.579Z,6.16
2023-03-05T12:35:29.503Z,6.16
2023-03-05T12:38:08.221Z,6.15
2023-03-05T12:40:42.959Z,6.14
2023-03-05T12:43:31.125Z,6.12
2023-03-05T12:46:29.103Z,6.08
2023-03-05T12:48:57.945Z,6.08
2023-03-05T12:51:33.748Z,6.05
2023-03-05T12:54:27.918Z,6.04
2023-03-05T12:56:57.429Z,6.04
2023-03-05T12:59:31.572Z,6.03
2023-03-05T13:02:04.997Z,5.98
2023-03-05T13:04:38.006Z,5.96
2023-03-05T13:07:13.398Z,5.97
2023-03-05T13:09:41.961Z,5.99
2023-03-05T13:12:14.614Z,5.99
2023-03-05T13:14:44.938Z,5.99
2023-03-05T13:17:29.502Z,5.99
2023-03-05T13:19:58.882Z,5.98
2023-03-05T13:22:28.573Z,5.96
2023-03-05T13:25:14.562Z,5.95
2023-03-05T13:27:44.222Z,5.97
2023-03-05T13:30:22.808Z,5.97
2023-03-05T13:32:54.036Z,5.95
2023-03-05T13:35:23.081Z,5.95
2023-03-05T13:37:51.820Z,5.95
2023-03-05T13:40:24.515Z,5.95
2023-03-05T13:42:54.517Z,5.96
2023-03-05T13:45:26.671Z,5.95
2023-03-05T13:47:59.995Z,5.94
2023-03-05T13:50:30.891Z,5.90
2023-03-05T13:53:16.932Z,5.90
2023-03-05T13:55:45.790Z,5.88
2023-03-05T13:58:47.378Z,5.85
2023-03-05T14:01:25.200Z,5.84
2023-03-05T14:03:58.222Z,5.84
2023-03-05T14:06:29.572Z,5.84
2023-03-05T14:09:08.906Z,5.85
2023-03-05T14:11:41.542Z,5.86
2023-03-05T14:14:19.047Z,5.88
2023-03-05T14:16:48.130Z,5.89
2023-03-05T14:19:34.793Z,5.91
2023-03-05T14:22:05.644Z,5.90
2023-03-05T14:24:34.783Z,5.92
2023-03-05T14:27:07.837Z,5.94
2023-03-05T14:29:37.553Z,5.94
2023-03-05T14:32:08.710Z,5.93
2023-03-05T14:34:41.082Z,5.94
2023-03-05T14:37:20.233Z,5.94
2023-03-05T14:39:53.885Z,5.94
2023-03-05T14:42:31.510Z,5.93
2023-03-05T14:45:01.917Z,5.91
2023-03-05T14:47:30.413Z,5.90
2023-03-05T14:50:00.738Z,5.90
2023-03-05T14:52:29.476Z,5.89
2023-03-05T14:54:58.748Z,5.91
2023-03-05T14:57:29.677Z,5.91
2023-03-05T14:59:58.321Z,5.91
2023-03-05T15:02:28.150Z,5.91
2023-03-05T15:04:56.938Z,5.91
2023-03-05T15:07:30.783Z,5.90
2023-03-05T15:10:00.770Z,5.92
2023-03-05T15:12:29.593Z,5.93
2023-03-05T15:14:58.176Z,5.93
2023-03-05T15:17:35.208Z,5.94
2023-03-05T15:20:08.034Z,5.96
2023-03-05T15:22:38.735Z,5.96
2023-03-05T15:25:07.933Z,5.98
2023-03-05T15:27:38.814Z,5.98
2023-03-05T15:30:09.888Z,5.97
2023-03-05T15:32:40.841Z,5.97
2023-03-05T15:35:10.636Z,5.96
2023-03-05T15:37:40.685Z,5.96
2023-03-05T15:40:13.575Z,5.95
2023-03-05T15:42:42.224Z,5.94
2023-03-05T15:45:11.537Z,5.95
2023-03-05T15:47:40.218Z,5.95
2023-03-05T15:50:13.860Z,5.96
2023-03-05T15:52:44.059Z,5.96
2023-03-05T15:55:13.363Z,5.97
2023-03-05T15:57:45.754Z,5.97
2023-03-05T16:00:18.931Z,5.98
2023-03-05T16:02:48.054Z,5.98
2023-03-05T16:05:17.130Z,5.96
2023-03-05T16:07:51.969Z,5.93
2023-03-05T16:10:25.722Z,5.90
2023-03-05T16:12:59.310Z,5.88
2023-03-05T16:15:33.051Z,5.86
2023-03-05T16:20:53.116Z,5.83
2023-03-05T16:23:26.250Z,5.81
2023-03-05T16:25:56.118Z,5.79
2023-03-05T16:28:39.972Z,5.79
2023-03-05T16:31:13.828Z,5.77
2023-03-05T16:33:51.660Z,5.74
2023-03-05T16:36:28.285Z,5.73
2023-03-05T16:39:01.167Z,5.71
2023-03-05T16:41:42.227Z,5.68
2023-03-05T16:44:12.461Z,5.65
2023-03-05T16:46:51.761Z,5.64
2023-03-05T16:49:31.246Z,5.64
2023-03-05T16:52:17.715Z,5.61
2023-03-05T16:54:59.274Z,5.61
2023-03-05T16:57:39.648Z,5.59
2023-03-05T17:00:19.384Z,5.59
2023-03-05T17:02:50.037Z,5.60
2023-03-05T17:05:21.324Z,5.58
2023-03-05T17:07:55.751Z,5.59
2023-03-05T17:10:26.923Z,5.59
2023-03-05T17:13:01.449Z,5.58
2023-03-05T17:15:31.229Z,5.56
2023-03-05T17:18:02.628Z,5.56
2023-03-05T17:20:36.115Z,5.54
2023-03-05T17:23:06.452Z,5.51
2023-03-05T17:25:37.945Z,5.49
2023-03-05T17:28:06.964Z,5.48
2023-03-05T17:30:37.531Z,5.47
2023-03-05T17:33:07.777Z,5.43
2023-03-05T17:35:40.998Z,5.41
2023-03-05T17:38:10.803Z,5.40
2023-03-05T17:40:41.076Z,5.39
2023-03-05T17:43:09.868Z,5.37
2023-03-05T17:45:38.665Z,5.36
2023-03-05T17:48:08.392Z,5.37
2023-03-05T17:50:36.978Z,5.35
2023-03-05T17:53:05.683Z,5.35
2023-03-05T17:55:34.599Z,5.33
2023-03-05T17:58:04.413Z,5.32
2023-03-05T18:00:33.454Z,5.32
2023-03-05T18:03:02.440Z,5.31
2023-03-05T18:05:32.665Z,5.30
2023-03-05T18:08:03.728Z,5.31
2023-03-05T18:10:32.611Z,5.31
2023-03-05T18:13:01.542Z,5.31
2023-03-05T18:15:31.856Z,5.31
2023-03-05T18:18:03.063Z,5.30
2023-03-05T18:20:33.859Z,5.28
2023-03-05T18:23:03.760Z,5.26
2023-03-05T18:25:32.668Z,5.24
2023-03-05T18:28:02.018Z,5.23
2023-03-05T18:30:32.720Z,5.22
2023-03-05T18:33:01.813Z,5.22
2023-03-05T18:35:33.705Z,5.22
2023-03-05T18:38:03.214Z,5.23
2023-03-05T18:40:35.867Z,5.22
2023-03-05T18:43:04.859Z,5.20
2023-03-05T18:45:35.002Z,5.20
2023-03-05T18:48:03.845Z,5.18
2023-03-05T18:50:32.413Z,5.18
2023-03-05T18:53:01.137Z,5.17
2023-03-05T18:55:31.043Z,5.17
2023-03-05T18:57:59.954Z,5.17
2023-03-05T19:00:31.384Z,5.15
2023-03-05T19:03:03.454Z,5.14
2023-03-05T19:05:32.245Z,5.11
2023-03-05T19:08:01.870Z,5.09
2023-03-05T19:10:33.226Z,5.10
2023-03-05T19:13:15.814Z,5.08
2023-03-05T19:15:47.835Z,5.08
2023-03-05T19:18:20.769Z,5.05
2023-03-05T19:20:56.548Z,5.03
2023-03-05T19:23:26.409Z,5.03
2023-03-05T19:25:56.109Z,5.03
2023-03-05T19:28:28.469Z,5.04
2023-03-05T19:30:59.313Z,5.00
2023-03-05T19:33:30.941Z,5.00
2023-03-05T19:36:00.688Z,4.95
2023-03-05T19:38:31.591Z,4.94
2023-03-05T19:41:02.111Z,4.93
2023-03-05T19:43:34.821Z,4.89
2023-03-05T19:46:07.906Z,4.87
2023-03-05T19:48:43.237Z,4.84
2023-03-05T19:51:16.315Z,4.81
2023-03-05T19:53:45.677Z,4.81
2023-03-05T19:56:17.146Z,4.79
2023-03-05T19:58:49.921Z,4.79
2023-03-05T20:01:21.631Z,4.79
2023-03-05T20:03:55.064Z,4.76
2023-03-05T20:06:27.314Z,4.76
2023-03-05T20:08:56.765Z,4.75
2023-03-05T20:11:29.886Z,4.74
2023-03-05T20:13:58.747Z,4.72
2023-03-05T20:16:32.135Z,4.68
2023-03-05T20:19:05.195Z,4.65
2023-03-05T20:21:37.006Z,4.65
2023-03-05T20:24:09.873Z,4.66
2023-03-05T20:26:40.300Z,4.63
2023-03-05T20:29:12.201Z,4.61
2023-03-05T20:31:42.989Z,4.61
2023-03-05T20:34:17.538Z,4.60
2023-03-05T20:36:47.264Z,4.57
2023-03-05T20:39:16.940Z,4.59
2023-03-05T20:41:47.278Z,4.59
2023-03-05T20:44:18.696Z,4.57
2023-03-05T20:46:59.829Z,4.57
2023-03-05T20:49:33.004Z,4.56
2023-03-05T20:52:02.868Z,4.56
2023-03-05T20:54:31.850Z,4.56
2023-03-05T20:57:02.412Z,4.56
2023-03-05T20:59:33.200Z,4.53
2023-03-05T21:02:03.424Z,4.54
2023-03-05T21:04:35.067Z,4.56
2023-03-05T21:07:04.245Z,4.56
2023-03-05T21:09:33.159Z,4.52
2023-03-05T21:12:02.575Z,4.49
2023-03-05T21:14:39.464Z,4.46
2023-03-05T21:17:09.976Z,4.45
2023-03-05T21:19:41.674Z,4.44
2023-03-05T21:22:12.474Z,4.43
2023-03-05T21:24:55.652Z,4.41
2023-03-05T21:27:29.743Z,4.40
2023-03-05T21:29:59.865Z,4.37
2023-03-05T21:32:30.575Z,4.34
2023-03-05T21:35:03.471Z,4.30
2023-03-05T21:37:42.548Z,4.29
2023-03-05T21:40:14.638Z,4.27
2023-03-05T21:42:47.148Z,4.26
2023-03-05T21:45:24.920Z,4.26
2023-03-05T21:47:56.866Z,4.23
2023-03-05T21:50:28.229Z,4.21
2023-03-05T21:53:00.535Z,4.19
2023-03-05T21:55:34.328Z,4.16
2023-03-05T21:58:06.550Z,4.13
2023-03-05T22:00:37.265Z,4.08
2023-03-05T22:03:08.196Z,4.04
2023-03-05T22:05:43.823Z,3.99
2023-03-05T22:08:12.814Z,3.95
2023-03-05T22:10:42.300Z,3.91
2023-03-05T22:13:17.123Z,3.87
2023-03-05T22:15:48.840Z,3.83
2023-03-05T22:18:27.307Z,3.82
2023-03-05T22:20:59.127Z,3.81
2023-03-05T22:23:31.823Z,3.81
2023-03-05T22:26:03.960Z,3.80
2023-03-05T22:28:39.359Z,3.79
2023-03-05T22:31:10.473Z,3.78
2023-03-05T22:33:40.657Z,3.77
2023-03-05T22:36:17.278Z,3.78
2023-03-05T22:38:47.854Z,3.79
2023-03-05T22:41:22.140Z,3.81
2023-03-05T22:43:51.800Z,3.82
2023-03-05T22:46:23.250Z,3.84
2023-03-05T22:48:54.560Z,3.84
2023-03-05T22:51:26.154Z,3.84
2023-03-05T22:53:56.414Z,3.86
2023-03-05T22:56:26.071Z,3.88
2023-03-05T22:58:58.926Z,3.87
2023-03-05T23:01:30.759Z,3.88
2023-03-05T23:04:08.554Z,3.89
2023-03-05T23:06:39.938Z,3.89
2023-03-05T23:09:09.433Z,3.90
2023-03-05T23:11:39.992Z,3.89
2023-03-05T23:14:13.300Z,3.90
2023-03-05T23:16:45.131Z,3.89
2023-03-05T23:19:14.911Z,3.89
2023-03-05T23:21:46.409Z,3.89
2023-03-05T23:24:16.942Z,3.90
2023-03-05T23:26:46.876Z,3.91
2023-03-05T23:29:16.832Z,3.91
2023-03-05T23:31:47.047Z,3.91
2023-03-05T23:34:21.352Z,3.90
2023-03-05T23:36:52.314Z,3.88
2023-03-05T23:39:20.941Z,3.88
2023-03-05T23:41:52.205Z,3.87
2023-03-05T23:44:20.778Z,3.86
2023-03-05T23:46:49.651Z,3.82
2023-03-05T23:49:18.808Z,3.82
2023-03-05T23:51:48.113Z,3.79
2023-03-05T23:54:19.318Z,3.76
2023-03-05T23:56:49.943Z,3.73
2023-03-05T23:59:19.792Z,3.70
